Time;durP1;ratioP1;P1;durP2;ratioP2;P2;SDS_P1;SDS_P2;PMS_P1;PMS_P2;Temp;Humidity;BMP_temperature;BMP_pressure;BME280_temperature;BME280_humidity;BME280_pressure;Samples;Min_cycle;Max_cycle;Signal;HPM_P1;HPM_P2
2022/04/09 00:01:43;;;;;;;25.73;15.13;;;;;;;6.63;100.00;97771.59;4972766;28;20051;-66
2022/04/09 00:04:08;;;;;;;28.00;15.88;;;;;;;6.63;100.00;97774.28;4972701;28;20078;-66
2022/04/09 00:06:34;;;;;;;27.70;15.50;;;;;;;6.57;100.00;97780.31;4971809;28;20648;-66
2022/04/09 00:09:00;;;;;;;27.20;14.73;;;;;;;6.60;100.00;97780.00;4987811;28;20058;-67
2022/04/09 00:11:26;;;;;;;25.00;13.82;;;;;;;6.68;100.00;97798.75;4973227;28;20058;-66
2022/04/09 00:13:52;;;;;;;26.77;14.10;;;;;;;6.69;100.00;97792.38;4971185;28;20276;-66
2022/04/09 00:16:18;;;;;;;22.63;12.20;;;;;;;6.67;100.00;97789.88;4970891;28;20050;-66
2022/04/09 00:18:44;;;;;;;17.45;7.05;;;;;;;6.74;100.00;97808.81;4971981;28;20406;-66
2022/04/09 00:21:10;;;;;;;18.35;9.05;;;;;;;6.68;100.00;97798.75;4972328;28;20107;-66
2022/04/09 00:23:36;;;;;;;11.23;5.07;;;;;;;6.61;100.00;97803.13;4970978;28;20047;-65
2022/04/09 00:26:02;;;;;;;8.63;3.72;;;;;;;6.59;100.00;97803.31;4970683;28;20053;-66
2022/04/09 00:28:27;;;;;;;10.10;3.70;;;;;;;6.53;100.00;97802.13;4954773;28;20471;-66
2022/04/09 00:30:53;;;;;;;8.65;2.80;;;;;;;6.50;100.00;97802.47;4954571;28;20426;-66
2022/04/09 00:33:19;;;;;;;8.35;2.90;;;;;;;6.46;100.00;97801.16;4970914;28;20499;-66
2022/04/09 00:35:45;;;;;;;7.57;2.40;;;;;;;6.35;100.00;97808.72;4986863;28;20426;-66
2022/04/09 00:38:10;;;;;;;6.38;2.25;;;;;;;6.29;100.00;97804.88;4954516;28;20205;-67
2022/04/09 00:40:38;;;;;;;6.28;1.88;;;;;;;6.25;100.00;97808.88;4970539;28;20062;-66
2022/04/09 00:43:04;;;;;;;6.53;2.15;;;;;;;6.16;100.00;97804.56;4954523;28;20051;-66
2022/04/09 00:45:30;;;;;;;6.40;2.03;;;;;;;6.19;100.00;97820.31;4970387;28;20537;-66
2022/04/09 00:47:56;;;;;;;5.78;1.60;;;;;;;6.15;100.00;97833.22;4954381;28;20117;-66
2022/04/09 00:50:22;;;;;;;7.10;2.03;;;;;;;6.09;100.00;97819.66;4954107;28;20494;-66
2022/04/09 00:52:50;;;;;;;6.03;1.90;;;;;;;6.08;100.00;97832.22;4970232;28;20051;-66
2022/04/09 00:58:13;;;;;;;6.30;2.05;;;;;;;5.92;100.00;97829.50;4956402;28;20098;-66
2022/04/09 01:00:40;;;;;;;5.55;1.52;;;;;;;5.98;100.00;97837.75;4970130;28;20046;-66
2022/04/09 01:03:06;;;;;;;6.35;1.88;;;;;;;6.05;100.00;97845.97;4970215;28;20047;-66
2022/04/09 01:05:32;;;;;;;6.20;2.15;;;;;;;5.81;100.00;97838.69;4970233;28;20133;-67
2022/04/09 01:07:58;;;;;;;8.05;2.13;;;;;;;5.87;100.00;97859.50;4953841;28;20098;-67
2022/04/09 01:10:24;;;;;;;6.57;1.92;;;;;;;5.89;100.00;97857.50;4970234;28;20086;-67
2022/04/09 01:12:50;;;;;;;6.70;1.75;;;;;;;5.86;100.00;97851.63;4969987;28;20530;-67
2022/04/09 01:15:16;;;;;;;6.40;1.80;;;;;;;5.82;100.00;97848.44;4969937;28;20084;-67
2022/04/09 01:17:41;;;;;;;6.78;1.85;;;;;;;5.78;100.00;97844.41;4969839;28;20503;-67
2022/04/09 01:20:26;;;;;;;6.40;2.00;;;;;;;5.79;100.00;97867.53;4969707;28;20043;-67
2022/04/09 01:22:52;;;;;;;5.45;1.80;;;;;;;5.75;100.00;97882.28;4954083;28;20062;-67
2022/04/09 01:25:19;;;;;;;7.13;2.00;;;;;;;5.70;100.00;97884.59;4971239;28;20097;-67
2022/04/09 01:27:47;;;;;;;6.78;2.30;;;;;;;5.70;100.00;97895.31;4953782;28;20446;-66
2022/04/09 01:30:16;;;;;;;6.80;1.98;;;;;;;5.68;100.00;97898.16;4937611;28;20042;-67
2022/04/09 01:32:42;;;;;;;6.80;2.13;;;;;;;5.76;100.00;97900.03;4953521;28;20082;-67
2022/04/09 01:35:09;;;;;;;5.60;1.80;;;;;;;5.76;100.00;97905.41;4969418;28;20454;-67
2022/04/09 01:37:35;;;;;;;6.55;1.98;;;;;;;5.73;100.00;97911.91;4971088;28;20150;-67
2022/04/09 01:40:01;;;;;;;6.60;2.25;;;;;;;5.74;100.00;97918.09;4969442;28;20192;-67
2022/04/09 01:42:29;;;;;;;8.32;3.33;;;;;;;5.69;100.00;97920.44;4969482;28;20043;-67
2022/04/09 01:44:57;;;;;;;8.80;2.63;;;;;;;5.65;100.00;97932.50;4953427;28;20160;-66
2022/04/09 01:47:23;;;;;;;7.60;2.25;;;;;;;5.62;100.00;97930.16;4953635;28;20414;-66
2022/04/09 01:49:49;;;;;;;7.45;2.72;;;;;;;5.56;100.00;97937.84;4969789;28;20058;-66
2022/04/09 01:52:15;;;;;;;6.93;2.13;;;;;;;5.46;100.00;97947.84;4970553;28;20461;-67
2022/04/09 01:54:41;;;;;;;7.32;2.60;;;;;;;5.41;100.00;97954.69;4953503;28;20046;-66
2022/04/09 01:57:07;;;;;;;7.50;2.70;;;;;;;5.32;100.00;97959.16;4953433;28;20113;-66
2022/04/09 01:59:33;;;;;;;7.60;2.58;;;;;;;5.27;100.00;97953.47;4969396;28;20039;-66
2022/04/09 02:02:00;;;;;;;7.13;2.65;;;;;;;5.23;100.00;97973.53;4969658;28;20055;-66
2022/04/09 02:04:26;;;;;;;7.10;2.63;;;;;;;5.29;100.00;97983.59;4969673;28;20054;-66
2022/04/09 02:06:52;;;;;;;8.40;2.60;;;;;;;5.21;100.00;97971.00;4971252;28;20050;-66
2022/04/09 02:09:18;;;;;;;7.00;2.72;;;;;;;5.26;100.00;97975.88;4989586;28;20051;-66
2022/04/09 02:11:44;;;;;;;7.95;2.95;;;;;;;5.18;100.00;97975.81;4957280;28;20125;-67
2022/04/09 02:14:11;;;;;;;8.77;2.80;;;;;;;5.24;100.00;97992.13;4973224;28;20494;-66
2022/04/09 02:16:38;;;;;;;7.75;2.72;;;;;;;5.23;100.00;97994.97;4973237;28;20105;-66
2022/04/09 02:19:04;;;;;;;6.55;2.47;;;;;;;5.24;100.00;97997.47;4957247;28;20524;-66
2022/04/09 02:21:30;;;;;;;6.47;2.25;;;;;;;5.27;100.00;97991.81;4973396;28;20068;-66
2022/04/09 02:23:57;;;;;;;6.90;2.47;;;;;;;5.26;100.00;97989.25;4973636;28;20462;-66
2022/04/09 02:26:23;;;;;;;7.75;3.10;;;;;;;5.29;100.00;98005.03;4974743;28;20495;-67
2022/04/09 02:28:49;;;;;;;9.02;3.10;;;;;;;5.30;100.00;98012.06;4973001;28;20054;-67
2022/04/09 02:31:20;;;;;;;8.27;2.67;;;;;;;5.24;100.00;98004.69;4956955;28;20050;-66
2022/04/09 02:33:47;;;;;;;11.25;2.90;;;;;;;5.22;100.00;98012.00;4973105;28;20058;-66
2022/04/09 02:36:14;;;;;;;7.57;2.65;;;;;;;5.25;100.00;98014.38;4972624;28;20055;-66
2022/04/09 02:38:42;;;;;;;7.05;3.08;;;;;;;5.20;100.00;98022.06;4972763;28;20098;-66
2022/04/09 02:41:09;;;;;;;9.98;3.15;;;;;;;5.22;100.00;98003.97;4972673;28;20046;-66
2022/04/09 02:43:36;;;;;;;7.28;3.00;;;;;;;5.18;100.00;98013.34;4956189;28;20137;-66
2022/04/09 02:46:02;;;;;;;7.70;2.80;;;;;;;5.13;100.00;98010.28;4972993;28;20057;-66
2022/04/09 02:48:30;;;;;;;7.45;2.88;;;;;;;5.16;100.00;98008.16;4957299;28;20063;-66
2022/04/09 02:50:56;;;;;;;8.32;2.65;;;;;;;5.06;100.00;98010.91;4972473;28;20042;-66
2022/04/09 02:53:23;;;;;;;7.30;2.60;;;;;;;5.11;100.00;98001.56;4972590;28;20109;-66
2022/04/09 02:55:49;;;;;;;8.20;2.90;;;;;;;5.21;100.00;98021.06;4972559;28;20057;-66
2022/04/09 02:58:15;;;;;;;6.90;2.50;;;;;;;5.22;100.00;98026.25;4972335;28;20050;-67
2022/04/09 03:00:44;;;;;;;10.00;4.55;;;;;;;5.20;100.00;98033.63;4956104;28;20042;-66
2022/04/09 03:03:10;;;;;;;8.05;3.28;;;;;;;5.08;100.00;98018.78;4956630;28;20059;-66
2022/04/09 03:05:43;;;;;;;9.20;2.92;;;;;;;5.19;100.00;98039.97;4972314;28;20483;-66
2022/04/09 03:08:09;;;;;;;8.55;3.60;;;;;;;4.97;100.00;98022.56;4955963;28;20142;-66
2022/04/09 03:10:35;;;;;;;9.80;3.25;;;;;;;5.03;99.26;98046.03;4972033;28;20190;-67
2022/04/09 03:13:00;;;;;;;8.02;2.80;;;;;;;5.12;99.44;98040.72;4955919;28;20379;-67
2022/04/09 03:15:26;;;;;;;8.45;3.35;;;;;;;4.90;100.00;98021.53;4971791;28;20153;-66
2022/04/09 03:17:53;;;;;;;8.10;3.10;;;;;;;5.06;98.82;98043.06;4971162;28;20039;-66
2022/04/09 03:20:22;;;;;;;7.30;2.65;;;;;;;4.99;99.54;98047.34;4955758;28;20081;-66
2022/04/09 03:22:49;;;;;;;8.20;3.22;;;;;;;5.01;99.80;98044.50;4973315;28;20065;-67
2022/04/09 03:25:25;;;;;;;7.72;2.65;;;;;;;5.02;96.63;98041.69;4957271;28;20418;-67
2022/04/09 03:27:53;;;;;;;11.82;3.92;;;;;;;4.99;96.87;98055.38;4956094;28;20534;-67
2022/04/09 03:30:20;;;;;;;8.70;3.72;;;;;;;4.92;97.57;98056.16;4959132;28;20042;-67
2022/04/09 03:32:46;;;;;;;7.85;3.08;;;;;;;4.96;97.72;98069.06;4958714;28;20038;-66
2022/04/09 03:35:18;;;;;;;7.50;3.00;;;;;;;5.02;96.75;98064.94;4975763;28;20192;-67
2022/04/09 03:37:46;;;;;;;8.02;3.08;;;;;;;5.07;96.59;98055.44;4990909;28;20431;-67
2022/04/09 03:40:14;;;;;;;9.00;3.40;;;;;;;5.10;95.96;98059.66;4975534;28;20042;-67
2022/04/09 03:42:41;;;;;;;7.65;3.38;;;;;;;5.06;95.76;98069.84;4958620;28;20490;-67
2022/04/09 03:45:08;;;;;;;7.60;3.08;;;;;;;4.95;95.80;98055.84;4990811;28;20069;-67
2022/04/09 03:47:34;;;;;;;9.60;3.30;;;;;;;5.06;96.43;98080.53;4989962;28;20046;-67
2022/04/09 03:50:05;;;;;;;7.90;3.28;;;;;;;5.07;96.52;98087.56;4974751;28;20573;-67
2022/04/09 03:52:31;;;;;;;10.23;3.78;;;;;;;5.06;96.31;98101.13;4990933;28;20133;-67
2022/04/09 03:54:57;;;;;;;9.23;4.03;;;;;;;5.08;96.71;98109.84;4974049;28;20136;-67
2022/04/09 03:57:23;;;;;;;8.98;3.17;;;;;;;5.15;95.96;98131.50;4974323;28;20410;-67
2022/04/09 03:59:55;;;;;;;9.35;3.15;;;;;;;5.14;96.13;98119.94;4974472;28;20054;-67
2022/04/09 04:02:22;;;;;;;11.00;4.72;;;;;;;5.21;95.58;98130.88;4974371;28;20050;-67
2022/04/09 04:04:51;;;;;;;9.32;3.60;;;;;;;5.19;94.96;98135.53;4974556;28;20100;-67
2022/04/09 04:07:20;;;;;;;9.05;3.72;;;;;;;5.24;95.32;98122.53;4958354;28;20054;-67
2022/04/09 04:09:46;;;;;;;8.20;3.83;;;;;;;5.22;95.76;98132.56;4958647;28;20082;-67
2022/04/09 04:12:12;;;;;;;10.20;3.70;;;;;;;5.24;94.10;98138.63;4974676;28;20522;-67
2022/04/09 04:14:38;;;;;;;8.18;3.28;;;;;;;5.11;95.35;98122.09;4990217;28;20046;-67
2022/04/09 04:17:04;;;;;;;7.93;3.42;;;;;;;5.32;94.46;98155.59;4990039;28;20046;-67
2022/04/09 04:19:33;;;;;;;9.88;3.47;;;;;;;5.39;94.29;98160.34;4973582;28;20076;-67
2022/04/09 04:21:59;;;;;;;8.02;3.00;;;;;;;5.37;93.22;98173.88;4973927;28;20408;-67
2022/04/09 04:24:25;;;;;;;8.20;3.10;;;;;;;5.40;93.18;98173.56;4990331;28;20050;-67
2022/04/09 04:26:53;;;;;;;8.50;3.15;;;;;;;5.49;92.86;98186.06;4974157;28;20128;-67
2022/04/09 04:29:22;;;;;;;8.90;3.63;;;;;;;5.42;92.84;98179.63;4973531;28;20070;-67
2022/04/09 04:31:48;;;;;;;8.82;4.00;;;;;;;5.45;93.05;98182.00;4973778;28;20046;-67
2022/04/09 04:34:14;;;;;;;8.82;3.80;;;;;;;5.25;93.72;98180.47;4957756;28;20092;-67
2022/04/09 04:36:42;;;;;;;8.70;3.85;;;;;;;5.22;94.24;98172.75;4958920;28;20052;-67
2022/04/09 04:39:09;;;;;;;8.30;3.50;;;;;;;5.34;94.57;98201.00;4990233;28;20046;-67
2022/04/09 04:41:35;;;;;;;9.05;3.58;;;;;;;5.20;95.24;98193.50;4957159;28;20042;-66
2022/04/09 04:44:01;;;;;;;8.75;3.53;;;;;;;5.37;95.66;98195.31;4973201;28;20129;-66
2022/04/09 04:46:36;;;;;;;9.45;4.22;;;;;;;5.46;93.36;98205.13;4974778;28;20480;-67
2022/04/09 04:49:04;;;;;;;10.43;4.13;;;;;;;5.45;92.50;98179.34;4973722;28;20050;-67
2022/04/09 04:51:31;;;;;;;9.38;3.88;;;;;;;5.63;91.75;98210.59;4989978;28;20077;-67
2022/04/09 04:53:58;;;;;;;10.07;4.82;;;;;;;5.43;92.44;98194.72;4989325;28;20081;-66
2022/04/09 04:56:25;;;;;;;13.88;7.55;;;;;;;5.53;92.38;98227.63;4990030;28;20097;-67
2022/04/09 04:58:54;;;;;;;12.38;6.40;;;;;;;5.50;93.68;98221.75;4973239;28;20432;-66
2022/04/09 05:01:20;;;;;;;8.27;3.75;;;;;;;5.45;94.05;98230.25;5005472;28;20160;-66
2022/04/09 05:03:53;;;;;;;10.13;4.43;;;;;;;5.31;94.03;98212.88;4974024;28;20047;-66
2022/04/09 05:06:26;;;;;;;10.07;4.13;;;;;;;5.48;94.68;98229.06;4958235;28;20073;-66
2022/04/09 05:08:53;;;;;;;9.52;3.90;;;;;;;5.40;94.76;98237.06;4957223;28;20132;-66
2022/04/09 05:11:28;;;;;;;9.50;4.18;;;;;;;5.41;94.85;98233.38;4959778;28;20041;-66
2022/04/09 05:13:55;;;;;;;10.18;4.53;;;;;;;5.48;95.22;98243.31;4957202;28;20050;-66
2022/04/09 05:16:23;;;;;;;10.65;4.70;;;;;;;5.67;94.21;98260.25;4989470;28;20061;-66
2022/04/09 05:18:56;;;;;;;9.63;4.47;;;;;;;5.69;93.74;98266.28;4974045;28;20390;-66
2022/04/09 05:21:23;;;;;;;9.73;4.43;;;;;;;5.65;94.58;98262.25;4973165;28;20125;-66
2022/04/09 05:23:50;;;;;;;12.13;4.60;;;;;;;5.58;94.31;98262.00;4972444;28;20077;-66
2022/04/09 05:26:15;;;;;;;9.20;4.22;;;;;;;5.48;95.29;98275.47;4989062;28;20050;-67
2022/04/09 05:28:43;;;;;;;9.73;4.50;;;;;;;5.52;96.10;98268.84;4973137;28;20086;-66
2022/04/09 05:31:11;;;;;;;11.27;5.53;;;;;;;5.40;96.21;98279.94;4956676;28;20137;-66
2022/04/09 05:33:38;;;;;;;10.65;5.07;;;;;;;5.44;95.38;98270.59;4973268;28;20050;-68
2022/04/09 05:36:07;;;;;;;9.48;4.10;;;;;;;5.44;96.11;98275.94;4957147;28;20097;-66
2022/04/09 05:38:34;;;;;;;10.35;5.07;;;;;;;5.39;96.25;98281.78;4956373;28;20094;-66
2022/04/09 05:41:01;;;;;;;9.93;4.55;;;;;;;5.48;95.96;98294.25;4956385;28;20042;-66
2022/04/09 05:43:29;;;;;;;9.43;3.92;;;;;;;5.52;95.58;98298.31;4956428;28;20104;-66
2022/04/09 05:45:57;;;;;;;;;;;;;;;5.55;94.70;98298.00;4957211;28;20609;-66
2022/04/09 05:48:34;;;;;;;9.80;3.80;;;;;;;5.73;94.85;98321.28;4973650;28;20358;-66
2022/04/09 05:51:00;;;;;;;10.95;4.20;;;;;;;5.70;94.11;98329.63;4956029;28;20038;-66
2022/04/09 05:53:29;;;;;;;11.73;4.50;;;;;;;5.60;93.32;98339.63;4972185;28;20069;-66
2022/04/09 05:55:57;;;;;;;9.13;4.32;;;;;;;5.62;93.69;98353.69;4972086;28;20052;-67
2022/04/09 05:58:26;;;;;;;10.70;4.43;;;;;;;5.55;92.75;98359.66;4970119;28;20043;-67
2022/04/09 06:00:58;;;;;;;;;;;;;;;5.58;92.58;98363.88;4952315;28;20053;-66
2022/04/09 06:03:29;;;;;;;11.00;4.53;;;;;;;5.56;92.60;98366.72;5005805;28;19925;-66
2022/04/09 06:05:55;;;;;;;10.88;4.72;;;;;;;5.52;91.74;98365.34;4987153;28;20045;-66
2022/04/09 06:08:45;;;;;;;13.65;4.97;;;;;;;5.52;91.34;98368.03;4977478;28;20062;-66
2022/04/09 06:11:24;;;;;;;8.90;4.00;;;;;;;5.48;91.49;98379.16;4990499;28;20098;-66
2022/04/09 06:13:53;;;;;;;10.32;4.60;;;;;;;5.52;90.91;98378.75;4987041;28;20042;-67
2022/04/09 06:16:19;;;;;;;10.10;4.22;;;;;;;5.57;91.31;98391.69;4959772;28;20046;-72
2022/04/09 06:18:50;;;;;;;11.02;4.20;;;;;;;5.62;91.39;98396.59;4942815;28;20413;-68
2022/04/09 06:21:16;;;;;;;11.88;4.75;;;;;;;5.75;91.49;98403.28;4961496;28;20132;-67
2022/04/09 06:23:43;;;;;;;11.77;4.45;;;;;;;5.72;89.99;98398.22;4955234;28;20061;-67
2022/04/09 06:26:09;;;;;;;10.00;4.97;;;;;;;5.60;88.84;98398.59;4947600;28;20094;-67
2022/04/09 06:28:37;;;;;;;10.15;4.97;;;;;;;5.53;89.56;98399.19;4943377;28;20046;-67
2022/04/09 06:31:03;;;;;;;9.35;4.80;;;;;;;5.49;90.89;98407.69;4956539;28;20034;-67
2022/04/09 06:33:30;;;;;;;11.90;5.07;;;;;;;5.59;90.19;98408.44;4955875;28;20050;-67
2022/04/09 06:36:02;;;;;;;10.60;4.80;;;;;;;5.66;90.51;98414.06;4973675;28;20125;-72
2022/04/09 06:38:31;;;;;;;12.75;4.72;;;;;;;5.67;89.91;98416.59;4952801;28;20046;-72
2022/04/09 06:41:00;;;;;;;10.80;4.65;;;;;;;5.64;90.00;98399.97;4957340;28;20043;-66
2022/04/09 06:43:33;;;;;;;10.55;5.10;;;;;;;5.71;89.79;98414.47;4957582;28;20085;-67
2022/04/09 06:46:31;;;;;;;12.45;5.18;;;;;;;5.67;90.20;98416.59;4964516;28;20153;-68
2022/04/09 06:49:13;;;;;;;11.32;5.50;;;;;;;5.65;89.53;98420.41;4963448;28;20072;-67
2022/04/09 06:51:42;;;;;;;10.88;4.57;;;;;;;5.71;90.05;98427.88;4977995;28;20093;-66
2022/04/09 06:54:21;;;;;;;10.27;5.50;;;;;;;5.64;89.67;98437.50;4959301;28;20054;-65
2022/04/09 06:56:47;;;;;;;10.73;5.25;;;;;;;5.72;90.17;98434.91;4963512;28;20034;-66
2022/04/09 06:59:16;;;;;;;8.80;4.10;;;;;;;5.83;88.86;98448.09;4963555;28;20082;-68
2022/04/09 07:01:42;;;;;;;9.50;4.22;;;;;;;5.70;88.69;98445.75;4947553;28;20043;-69
2022/04/09 07:04:09;;;;;;;10.45;4.78;;;;;;;5.75;88.87;98456.06;4933175;28;20145;-68
2022/04/09 07:06:35;;;;;;;13.15;4.82;;;;;;;5.89;88.43;98452.03;4962868;28;20054;-68
2022/04/09 07:09:00;;;;;;;10.10;5.55;;;;;;;5.73;88.76;98448.16;4961161;28;20524;-69
2022/04/09 07:11:27;;;;;;;13.40;5.15;;;;;;;5.80;88.87;98459.97;4961926;28;20047;-67
2022/04/09 07:13:53;;;;;;;9.43;4.55;;;;;;;5.71;88.42;98455.53;4940154;28;20051;-68
2022/04/09 07:16:18;;;;;;;13.10;6.10;;;;;;;5.77;88.67;98479.03;4948981;28;20047;-67
2022/04/09 07:18:44;;;;;;;11.50;5.68;;;;;;;5.86;88.77;98488.03;4945898;28;20047;-67
2022/04/09 07:21:10;;;;;;;9.95;5.00;;;;;;;5.82;88.86;98473.25;4945979;28;20148;-67
2022/04/09 07:23:36;;;;;;;13.25;6.38;;;;;;;5.95;88.83;98484.47;4978480;28;20114;-68
2022/04/09 07:26:02;;;;;;;12.13;5.40;;;;;;;5.84;88.01;98491.84;4973667;28;20286;-67
2022/04/09 07:28:28;;;;;;;14.40;5.90;;;;;;;5.92;87.72;98484.75;4929078;28;20042;-68
2022/04/09 07:30:54;;;;;;;14.40;5.85;;;;;;;5.95;87.74;98500.56;4965965;28;20066;-68
2022/04/09 07:33:20;;;;;;;11.68;5.03;;;;;;;6.08;87.78;98504.75;4942227;28;20105;-67
2022/04/09 07:35:46;;;;;;;10.45;4.70;;;;;;;6.04;86.41;98494.31;4959996;28;20058;-68
2022/04/09 07:38:12;;;;;;;10.68;5.07;;;;;;;6.14;87.06;98520.22;4926194;28;20051;-68
2022/04/09 07:40:38;;;;;;;10.52;5.35;;;;;;;6.19;86.62;98517.94;4969128;28;20043;-67
2022/04/09 07:43:04;;;;;;;11.50;4.65;;;;;;;6.06;86.49;98522.81;4965439;28;20437;-67
2022/04/09 07:45:30;;;;;;;9.63;4.72;;;;;;;6.19;85.85;98540.25;4977334;28;20124;-67
2022/04/09 07:47:58;;;;;;;10.68;5.30;;;;;;;6.38;85.17;98539.28;4948545;28;20134;-67
2022/04/09 07:50:25;;;;;;;14.43;4.93;;;;;;;6.11;86.23;98533.97;4945413;28;20042;-67
2022/04/09 07:52:52;;;;;;;9.25;4.38;;;;;;;6.10;85.59;98542.97;4947786;28;20147;-67
2022/04/09 07:55:18;;;;;;;10.73;4.30;;;;;;;6.12;86.53;98546.38;4958964;28;20509;-68
2022/04/09 07:57:45;;;;;;;11.70;4.60;;;;;;;6.20;85.41;98547.28;4957126;28;20038;-67
2022/04/09 08:00:12;;;;;;;17.92;5.20;;;;;;;6.43;85.44;98542.34;4968641;28;20046;-70
2022/04/09 08:02:38;;;;;;;11.30;5.20;;;;;;;6.44;84.17;98543.19;4945144;28;20070;-71
2022/04/09 08:05:05;;;;;;;11.52;6.10;;;;;;;6.35;85.15;98550.31;4939043;28;20046;-66
2022/04/09 08:07:31;;;;;;;12.93;5.18;;;;;;;6.33;85.21;98557.69;4991903;28;20137;-69
2022/04/09 08:09:57;;;;;;;11.05;4.63;;;;;;;6.26;85.08;98559.28;4979952;28;20451;-67
2022/04/09 08:12:23;;;;;;;10.57;4.70;;;;;;;6.28;85.33;98560.81;4964433;28;20082;-67
2022/04/09 08:14:49;;;;;;;10.05;4.50;;;;;;;6.34;84.86;98559.38;4960781;28;20121;-65
2022/04/09 08:17:20;;;;;;;14.07;5.88;;;;;;;6.29;84.11;98567.03;4990955;28;20113;-68
2022/04/09 08:19:46;;;;;;;13.95;4.78;;;;;;;6.32;84.48;98558.66;4964298;28;20661;-75
2022/04/09 08:22:12;;;;;;;12.93;5.07;;;;;;;6.53;82.97;98559.22;4973673;28;20117;-67
2022/04/09 08:24:40;;;;;;;10.80;4.90;;;;;;;6.66;83.66;98568.75;4976619;28;20183;-65
2022/04/09 08:27:09;;;;;;;10.40;4.85;;;;;;;6.71;83.37;98571.81;5001648;28;20143;-66
2022/04/09 08:29:35;;;;;;;12.65;5.00;;;;;;;6.84;82.97;98577.66;4960752;28;20061;-65
2022/04/09 08:32:04;;;;;;;10.10;4.90;;;;;;;6.70;82.59;98570.13;4975177;28;20041;-66
2022/04/09 08:34:33;;;;;;;11.77;5.18;;;;;;;6.83;81.61;98575.94;4972959;28;20080;-66
2022/04/09 08:37:00;;;;;;;12.15;5.43;;;;;;;6.67;82.63;98575.81;4991728;28;20506;-66
2022/04/09 08:39:26;;;;;;;14.90;4.90;;;;;;;6.73;82.20;98581.41;4990522;28;20490;-66
2022/04/09 08:41:53;;;;;;;9.98;4.10;;;;;;;6.56;82.11;98581.41;5008024;28;20093;-66
2022/04/09 08:44:19;;;;;;;11.98;5.22;;;;;;;6.60;82.00;98574.72;4987494;28;20112;-66
2022/04/09 08:46:47;;;;;;;10.52;5.53;;;;;;;6.66;81.45;98574.13;4986822;28;20042;-66
2022/04/09 08:49:13;;;;;;;11.55;5.30;;;;;;;6.71;81.39;98583.41;4994208;28;20103;-65
2022/04/09 08:51:40;;;;;;;10.88;5.40;;;;;;;6.64;81.53;98574.25;5002412;28;20057;-66
2022/04/09 08:54:08;;;;;;;11.35;4.80;;;;;;;6.63;81.99;98590.53;4984448;28;20182;-65
2022/04/09 08:56:34;;;;;;;11.77;6.00;;;;;;;6.45;82.55;98580.63;4973440;28;20138;-65
2022/04/09 08:59:01;;;;;;;10.95;5.10;;;;;;;6.47;82.67;98591.19;5000223;28;20108;-66
2022/04/09 09:01:29;;;;;;;10.55;5.53;;;;;;;6.21;82.80;98569.59;4991258;28;20144;-65
2022/04/09 09:03:56;;;;;;;13.18;5.32;;;;;;;6.34;82.40;98580.84;4985530;28;20152;-65
2022/04/09 09:06:27;;;;;;;10.70;4.50;;;;;;;6.48;82.05;98580.31;5007530;28;20070;-65
2022/04/09 09:08:54;;;;;;;10.02;5.20;;;;;;;6.86;80.65;98602.50;4969179;28;20070;-66
2022/04/09 09:11:21;;;;;;;10.95;4.38;;;;;;;7.24;78.93;98603.19;4946310;28;20611;-66
2022/04/09 09:13:49;;;;;;;11.57;5.55;;;;;;;7.30;78.27;98599.88;4953985;28;20078;-66
2022/04/09 09:16:25;;;;;;;10.45;4.80;;;;;;;7.82;76.50;98599.88;4937335;28;20069;-66
2022/04/09 09:18:53;;;;;;;10.52;4.97;;;;;;;8.42;73.49;98596.31;4983350;28;20061;-66
2022/04/09 09:21:23;;;;;;;10.18;4.85;;;;;;;8.28;73.25;98594.19;4988455;28;20089;-66
2022/04/09 09:23:51;;;;;;;10.20;5.20;;;;;;;8.18;72.71;98615.84;4987775;28;20146;-66
2022/04/09 09:26:22;;;;;;;12.93;4.65;;;;;;;8.69;71.15;98608.66;5004059;28;20074;-66
2022/04/09 09:28:57;;;;;;;8.80;4.57;;;;;;;8.05;71.82;98599.34;4987436;28;20039;-66
2022/04/09 09:31:43;;;;;;;10.38;4.82;;;;;;;8.12;71.19;98589.59;4988592;28;20147;-65
2022/04/09 09:34:16;;;;;;;9.07;3.40;;;;;;;8.72;69.33;98608.34;4989206;28;20081;-65
2022/04/09 09:36:43;;;;;;;9.38;3.78;;;;;;;9.48;66.54;98593.72;4990698;28;20137;-66
2022/04/09 09:39:13;;;;;;;12.77;4.75;;;;;;;9.20;67.18;98609.41;4971519;28;20044;-65
2022/04/09 09:41:47;;;;;;;10.20;4.45;;;;;;;9.50;65.37;98599.78;4989396;28;20065;-66
2022/04/09 09:44:12;;;;;;;10.98;3.60;;;;;;;10.07;62.50;98596.94;4988868;28;20050;-65
2022/04/09 09:46:38;;;;;;;11.48;3.92;;;;;;;9.61;63.83;98591.31;4956696;28;20053;-65
2022/04/09 09:49:04;;;;;;;8.70;4.03;;;;;;;9.21;64.65;98597.59;4988875;28;20050;-66
2022/04/09 09:51:30;;;;;;;15.00;4.47;;;;;;;9.94;63.14;98582.31;5005242;28;20050;-66
2022/04/09 09:54:11;;;;;;;16.25;5.30;;;;;;;12.04;55.81;98588.31;4972747;28;20041;-66
2022/04/09 09:56:42;;;;;;;8.63;4.10;;;;;;;12.50;54.07;98590.78;4972779;28;20510;-66
2022/04/09 09:59:11;;;;;;;9.95;3.30;;;;;;;11.50;55.35;98593.91;4988822;28;20348;-66
2022/04/09 10:01:42;;;;;;;8.80;3.45;;;;;;;12.05;53.54;98565.59;4972582;28;20086;-66
2022/04/09 10:04:14;;;;;;;10.02;3.65;;;;;;;14.02;49.34;98588.69;4989007;28;20047;-66
2022/04/09 10:06:43;;;;;;;7.78;3.50;;;;;;;14.28;47.56;98589.88;4973161;28;20073;-66
2022/04/09 10:09:11;;;;;;;10.35;4.47;;;;;;;15.56;44.14;98596.34;4988703;28;20150;-66
2022/04/09 10:11:43;;;;;;;7.35;3.88;;;;;;;17.42;40.04;98591.13;4990137;28;20070;-66
2022/04/09 10:14:13;;;;;;;8.88;3.78;;;;;;;16.84;39.85;98599.47;5004547;28;20141;-66
2022/04/09 10:16:42;;;;;;;7.40;3.35;;;;;;;14.66;44.50;98595.72;4956685;28;20104;-66
2022/04/09 10:19:09;;;;;;;10.85;2.97;;;;;;;14.04;46.13;98592.06;5005149;28;20153;-70
2022/04/09 10:21:38;;;;;;;8.43;3.50;;;;;;;13.93;46.70;98595.31;4972481;28;20133;-66
2022/04/09 10:24:06;;;;;;;9.07;3.45;;;;;;;14.08;45.94;98593.34;5004703;28;20137;-67
2022/04/09 10:26:32;;;;;;;8.00;3.60;;;;;;;12.75;48.94;98594.84;4988421;28;20042;-66
2022/04/09 10:29:08;;;;;;;7.72;3.28;;;;;;;13.31;48.27;98596.06;4993506;28;20058;-66
2022/04/09 10:31:39;;;;;;;10.23;3.80;;;;;;;13.13;49.33;98589.19;4992695;28;20144;-66
2022/04/09 10:34:16;;;;;;;8.57;3.50;;;;;;;13.15;48.54;98592.53;4992733;28;20502;-66
2022/04/09 10:36:45;;;;;;;10.80;3.15;;;;;;;11.32;51.71;98573.41;4992822;28;20046;-67
2022/04/09 10:39:41;;;;;;;8.07;4.18;;;;;;;12.68;50.37;98593.09;4993944;28;20038;-66
2022/04/09 10:42:08;;;;;;;9.60;3.78;;;;;;;14.56;45.90;98576.25;4975994;28;20060;-66
2022/04/09 10:44:42;;;;;;;8.82;3.60;;;;;;;14.79;45.51;98579.44;4976149;28;20046;-66
2022/04/09 10:47:13;;;;;;;8.10;3.92;;;;;;;14.30;45.56;98563.34;4994028;28;20061;-66
2022/04/09 10:49:38;;;;;;;7.10;3.20;;;;;;;15.37;43.73;98581.66;4975788;28;20089;-66
2022/04/09 10:52:16;;;;;;;8.27;3.55;;;;;;;16.65;41.47;98568.44;5008328;28;20145;-66
2022/04/09 10:55:04;;;;;;;7.57;3.58;;;;;;;17.02;38.93;98585.91;4975965;28;20048;-66
2022/04/09 10:57:43;;;;;;;8.55;3.70;;;;;;;17.60;38.60;98577.53;4991559;28;20373;-66
2022/04/09 11:00:26;;;;;;;8.90;3.40;;;;;;;18.56;37.01;98587.09;4975934;28;20062;-66
2022/04/09 11:03:10;;;;;;;9.10;3.90;;;;;;;18.79;36.99;98582.84;4993397;28;20038;-66
2022/04/09 11:05:39;;;;;;;11.10;4.00;;;;;;;16.55;39.51;98589.91;4991669;28;20046;-67
2022/04/09 11:08:10;;;;;;;9.93;3.65;;;;;;;15.53;41.09;98597.56;4975781;28;20372;-66
2022/04/09 11:10:36;;;;;;;7.25;3.40;;;;;;;16.98;39.20;98589.31;4993366;28;20050;-66
2022/04/09 11:13:03;;;;;;;7.60;3.90;;;;;;;16.07;40.48;98593.81;4991240;28;20046;-66
2022/04/09 11:15:29;;;;;;;8.80;3.88;;;;;;;18.15;37.27;98601.44;4975520;28;20062;-66
2022/04/09 11:18:00;;;;;;;12.98;3.50;;;;;;;16.97;37.76;98591.22;4991875;28;20096;-66
2022/04/09 11:20:31;;;;;;;9.23;3.80;;;;;;;16.14;39.87;98572.81;4975541;28;20057;-66
2022/04/09 11:22:57;;;;;;;7.55;3.17;;;;;;;16.54;38.16;98589.06;4992944;28;20083;-67
2022/04/09 11:25:27;;;;;;;8.60;3.90;;;;;;;16.79;38.26;98596.56;4959120;28;20054;-67
2022/04/09 11:28:04;;;;;;;8.27;3.72;;;;;;;16.46;38.90;98597.50;4991446;28;20141;-66
2022/04/09 11:30:30;;;;;;;8.98;3.67;;;;;;;17.46;37.34;98592.34;4975199;28;20129;-67
2022/04/09 11:32:56;;;;;;;12.15;2.65;;;;;;;16.48;39.46;98600.81;4975352;28;20379;-66
2022/04/09 11:35:25;;;;;;;10.15;3.97;;;;;;;15.71;41.27;98599.72;4975367;28;20050;-66
2022/04/09 11:37:52;;;;;;;13.68;2.80;;;;;;;14.73;43.76;98585.69;4990968;28;20081;-66
2022/04/09 11:40:19;;;;;;;9.45;3.33;;;;;;;14.23;44.61;98599.47;4975313;28;20046;-65
2022/04/09 11:42:49;;;;;;;11.27;3.63;;;;;;;15.68;41.52;98611.03;4975119;28;20068;-66